Список аэропортов
Фактическая погода:

26 апреля, 12:00
Температура: +25°C (+25.0*)
Ветер: юго-восточный 4 м/с
Давление: *762 мм
несуществ. обл.
Время (МСК)Темп. СВетерВлажностьДавлениеОблачностьОсадки
09:00+18СЗ, 1 м/с45%1017 гПаясно
10:00+20В, 1 м/с41%1017 гПаясно
11:00+22ЮВ, 2 м/с38%1016 гПаясно
12:00+24ЮВ, 2 м/с34%1016 гПаясно
13:00+25ЮВ, 2 м/с31%1015 гПаясно
14:00+25ЮВ, 1 м/с30%1015 гПамалооблачно
15:00+26В, 1 м/с30%1014 гПаоблачно
16:00+25В, 1 м/с30%1014 гПамалооблачно
17:00+25В, 2 м/с32%1014 гПас прояснениями
18:00+24ЮВ, 2 м/с37%1015 гПас прояснениями
19:00+21ЮВ, 2 м/с45%1015 гПаясно
20:00+19ЮВ, 2 м/с54%1016 гПаясно
21:00+18Ю, 3 м/с58%1016 гПаясно
22:00+17Ю, 3 м/с60%1016 гПаясно
23:00+16Ю, 3 м/с64%1016 гПаясно
27 апреля
00:00+15Ю, 2 м/с68%1016 гПаясно
01:00+13Ю, 1 м/с76%1016 гПаясно
02:00+12Штиль 84%1016 гПаясно
03:00+11Штиль 88%1016 гПаясно
04:00+10ЮЗ, 1 м/с87%1016 гПаясно
05:00+10ЮЗ, 2 м/с84%1017 гПаясно
06:00+10ЮЗ, 1 м/с80%1017 гПаясно
07:00+13Штиль 74%1015 гПаясно
08:00+17СВ, 1 м/с57%1015 гПаясно
09:00+21В, 3 м/с44%1014 гПаясно
10:00+23В, 4 м/с32%1013 гПаясно
11:00+24В, 5 м/с28%1012 гПаясно
12:00+26В, 5 м/с27%1012 гПаясно
13:00+26В, 5 м/с26%1011 гПаясно
14:00+27В, 6 м/с25%1011 гПас прояснениями
15:00+27В, 5 м/с25%1010 гПаясно
16:00+27В, 5 м/с26%1010 гПаясно
17:00+26В, 4 м/с29%1010 гПаясно
18:00+25В, 4 м/с33%1010 гПаясно
19:00+22ЮВ, 2 м/с44%1011 гПамалооблачно
20:00+19ЮВ, 1 м/с58%1011 гПаясно
21:00+18Ю, 1 м/с65%1012 гПаясно
22:00+16ЮЗ, 2 м/с72%1012 гПаясно
23:00+15ЮЗ, 2 м/с78%1012 гПамалооблачно
28 апреля
00:00+14ЮЗ, 2 м/с80%1012 гПамалооблачно
01:00+15З, 3 м/с79%1013 гПамалооблачно
02:00+16З, 4 м/с70%1012 гПаоблачно
03:00+17З, 5 м/с60%1012 гПаоблачно
04:00+17З, 5 м/с60%1013 гПаоблачно
05:00+16З, 5 м/с66%1014 гПаоблачно
06:00+15З, 5 м/с70%1015 гПаоблачно
07:00+17З, 5 м/с65%1015 гПаоблачно
08:00+19СЗ, 6 м/с55%1016 гПаясно
09:00+20СЗ, 6 м/с48%1016 гПамалооблачно